Time;durP1;ratioP1;P1;durP2;ratioP2;P2;SDS_P1;SDS_P2;PMS_P1;PMS_P2;Temp;Humidity;BMP_temperature;BMP_pressure;BME280_temperature;BME280_humidity;BME280_pressure;Samples;Min_cycle;Max_cycle;Signal;HPM_P1;HPM_P2
2022/01/12 00:01:11;;;;;;;25.00;14.52;;;;;;;1.44;85.63;103504.03;5031416;28;20033;-73
2022/01/12 00:03:38;;;;;;;21.02;13.43;;;;;;;1.44;85.51;103503.16;5039883;28;20034;-74
2022/01/12 00:06:04;;;;;;;23.55;14.70;;;;;;;1.45;85.48;103516.28;5044211;28;20227;-74
2022/01/12 00:08:31;;;;;;;22.23;14.02;;;;;;;1.50;85.43;103518.03;5044937;28;20034;-74
2022/01/12 00:10:57;;;;;;;22.08;14.13;;;;;;;1.49;85.58;103519.78;5045491;28;20362;-74
2022/01/12 00:13:24;;;;;;;23.05;14.25;;;;;;;1.51;85.39;103522.41;5039818;28;20025;-74
2022/01/12 00:15:49;;;;;;;26.80;15.48;;;;;;;1.53;85.06;103528.53;5038701;28;20080;-74
2022/01/12 00:18:14;;;;;;;24.27;16.30;;;;;;;1.54;85.11;103525.03;5050682;28;20037;-74
2022/01/12 00:20:40;;;;;;;22.98;14.35;;;;;;;1.56;84.68;103528.53;5046767;28;20037;-73
2022/01/12 00:23:05;;;;;;;25.23;14.73;;;;;;;1.54;85.06;103528.53;5041149;28;20089;-74
2022/01/12 00:25:43;;;;;;;25.35;15.60;;;;;;;1.59;85.08;103533.78;5034249;28;20033;-74
2022/01/12 00:33:37;;;;;;;25.33;14.82;;;;;;;1.62;84.42;103526.81;5032401;28;20140;-74
2022/01/12 00:36:02;;;;;;;24.30;14.93;;;;;;;1.63;84.55;103544.31;5032548;28;20033;-74
2022/01/12 00:38:29;;;;;;;24.10;14.88;;;;;;;1.64;85.34;103539.91;5036260;28;20048;-74
2022/01/12 00:40:55;;;;;;;24.25;15.45;;;;;;;1.66;84.63;103549.53;5026146;28;20033;-74
2022/01/12 00:43:23;;;;;;;22.52;14.65;;;;;;;1.64;84.70;103551.28;5036958;28;20041;-74
2022/01/12 00:45:49;;;;;;;24.52;15.80;;;;;;;1.66;85.20;103557.38;5035966;28;20557;-74
2022/01/12 00:48:15;;;;;;;24.10;15.55;;;;;;;1.69;85.41;103564.41;5042291;28;20033;-74
2022/01/12 00:50:42;;;;;;;30.25;16.58;;;;;;;1.69;85.60;103572.25;5032609;28;20050;-74
2022/01/12 00:53:08;;;;;;;25.67;16.42;;;;;;;1.70;86.18;103573.13;5049901;28;20033;-74
2022/01/12 00:55:34;;;;;;;23.50;16.83;;;;;;;1.70;86.33;103568.78;5038538;28;20099;-74
2022/01/12 00:58:00;;;;;;;26.27;15.93;;;;;;;1.70;86.74;103571.41;5038304;28;20034;-75
2022/01/12 01:00:27;;;;;;;24.70;16.83;;;;;;;1.71;87.37;103580.13;5027770;28;20076;-75
2022/01/12 01:02:54;;;;;;;26.23;17.75;;;;;;;1.71;87.90;103577.50;5033049;28;20336;-75
2022/01/12 01:05:24;;;;;;;22.83;16.33;;;;;;;1.71;88.34;103577.50;5025317;28;20483;-75
2022/01/12 01:07:51;;;;;;;25.02;17.38;;;;;;;1.71;88.43;103575.75;5019548;28;20087;-75
2022/01/12 01:10:28;;;;;;;27.52;17.75;;;;;;;1.69;88.88;103587.97;5030925;28;20101;-74
2022/01/12 01:12:53;;;;;;;28.63;18.95;;;;;;;1.67;89.87;103581.88;5031176;28;20040;-73
2022/01/12 01:15:28;;;;;;;30.05;19.02;;;;;;;1.66;89.57;103580.09;5027414;28;20030;-73
2022/01/12 01:26:05;;;;;;;27.45;19.30;;;;;;;1.60;90.50;103572.19;5031948;28;20171;-72
2022/01/12 01:28:30;;;;;;;33.25;19.02;;;;;;;1.56;91.11;103560.84;5025919;28;20060;-73
2022/01/12 01:30:56;;;;;;;30.85;19.00;;;;;;;1.55;91.39;103564.34;5029287;28;20021;-72
2022/01/12 01:33:21;;;;;;;30.05;18.70;;;;;;;1.52;91.56;103555.59;5027882;28;20474;-73
2022/01/12 01:35:57;;;;;;;26.63;18.52;;;;;;;1.50;91.89;103575.63;5031863;28;20079;-73
2022/01/12 01:38:22;;;;;;;31.08;20.27;;;;;;;1.47;91.92;103580.00;5032391;28;20037;-72
2022/01/12 01:40:48;;;;;;;29.55;19.00;;;;;;;1.46;92.28;103585.22;5030552;28;20051;-72
2022/01/12 01:43:28;;;;;;;32.38;20.30;;;;;;;1.44;92.38;103586.97;5031876;28;20075;-73
2022/01/12 01:54:07;;;;;;;31.80;20.27;;;;;;;1.46;92.66;103593.09;5012017;28;20076;-73
2022/01/12 01:56:32;;;;;;;37.70;20.17;;;;;;;1.45;92.83;103580.88;5011896;28;20038;-73
2022/01/12 01:58:57;;;;;;;32.72;20.55;;;;;;;1.40;92.91;103559.91;5011992;28;20527;-73
2022/01/12 02:01:23;;;;;;;36.92;20.83;;;;;;;1.38;92.99;103569.50;5011929;28;20034;-72
2022/01/12 02:03:49;;;;;;;33.80;20.33;;;;;;;1.39;93.47;103565.13;5012071;28;20079;-72
2022/01/12 02:06:15;;;;;;;32.70;20.52;;;;;;;1.36;93.60;103541.53;5012036;28;20368;-73
2022/01/12 02:08:41;;;;;;;35.78;20.13;;;;;;;1.36;93.62;103541.53;5012033;28;20344;-73
2022/01/12 02:11:06;;;;;;;37.80;21.13;;;;;;;1.36;93.27;103552.00;5012762;28;20044;-72
2022/01/12 02:13:32;;;;;;;31.42;20.60;;;;;;;1.35;93.27;103552.84;5012250;28;20472;-73
2022/01/12 02:15:58;;;;;;;32.95;20.92;;;;;;;1.36;93.81;103555.50;5012349;28;20353;-73
2022/01/12 02:35:21;;;;;;;33.17;20.38;;;;;;;1.40;93.50;103572.09;5018718;28;20411;-73
2022/01/12 02:40:32;;;;;;;33.70;20.80;;;;;;;1.40;93.54;103590.44;5026493;28;20037;-73
2022/01/12 02:43:12;;;;;;;36.70;21.45;;;;;;;1.39;93.38;103596.56;5030905;28;20029;-74
2022/01/12 02:53:48;;;;;;;29.60;19.85;;;;;;;1.41;93.36;103595.69;5019047;28;20037;-73
2022/01/12 02:56:17;;;;;;;35.50;21.42;;;;;;;1.41;93.73;103592.19;5031110;28;20104;-73
2022/01/12 02:58:45;;;;;;;36.33;22.52;;;;;;;1.42;93.80;103601.81;5022356;28;20033;-73
2022/01/12 03:04:01;;;;;;;33.97;20.90;;;;;;;1.42;93.45;103600.06;5027594;28;20073;-73
2022/01/12 03:06:31;;;;;;;36.78;22.58;;;;;;;1.40;93.41;103606.13;5030917;28;20033;-73
2022/01/12 03:08:57;;;;;;;34.90;21.17;;;;;;;1.41;93.72;103621.88;5029172;28;20540;-73
2022/01/12 03:11:24;;;;;;;37.63;22.23;;;;;;;1.41;93.68;103621.00;5029211;28;20044;-73
2022/01/12 03:13:50;;;;;;;40.45;22.42;;;;;;;1.43;93.43;103630.63;5030825;28;20029;-73
2022/01/12 03:16:18;;;;;;;37.92;23.27;;;;;;;1.45;93.58;103638.50;5029778;28;20489;-73
2022/01/12 03:18:46;;;;;;;35.33;22.13;;;;;;;1.45;93.28;103642.00;5030425;28;20554;-73
2022/01/12 03:21:12;;;;;;;36.60;23.35;;;;;;;1.44;93.76;103642.84;5030294;28;20028;-73
2022/01/12 03:23:38;;;;;;;34.33;21.75;;;;;;;1.45;93.44;103644.59;5021662;28;20419;-73
2022/01/12 03:26:05;;;;;;;35.78;21.98;;;;;;;1.45;93.69;103652.47;5023993;28;20201;-74
2022/01/12 03:28:31;;;;;;;38.35;22.77;;;;;;;1.46;93.30;103653.31;5030455;28;20432;-71
2022/01/12 03:31:09;;;;;;;37.92;22.77;;;;;;;1.48;93.58;103651.59;5030297;28;20130;-71
2022/01/12 03:38:44;;;;;;;34.65;21.98;;;;;;;1.50;93.72;103643.75;5030496;28;20064;-73
2022/01/12 03:41:09;;;;;;;35.40;23.23;;;;;;;1.50;93.50;103643.75;5030029;28;20029;-73
2022/01/12 03:43:34;;;;;;;35.78;22.20;;;;;;;1.50;93.49;103638.50;5016413;28;20025;-72
2022/01/12 03:46:00;;;;;;;37.08;21.75;;;;;;;1.48;93.51;103636.78;5030288;28;20487;-72
2022/01/12 03:48:25;;;;;;;43.35;22.88;;;;;;;1.49;93.85;103629.78;5027569;28;20147;-70
2022/01/12 03:50:50;;;;;;;36.65;21.90;;;;;;;1.47;93.94;103631.53;5023817;28;20407;-70
2022/01/12 03:53:17;;;;;;;35.15;22.63;;;;;;;1.51;93.97;103629.78;5024873;28;20061;-70
2022/01/12 03:55:43;;;;;;;37.40;23.52;;;;;;;1.51;93.78;103637.66;5028518;28;20108;-70
2022/01/12 03:58:11;;;;;;;38.85;23.67;;;;;;;1.51;94.00;103642.88;5022708;28;20044;-71
2022/01/12 04:00:37;;;;;;;39.40;22.58;;;;;;;1.50;93.81;103647.25;5028176;28;20029;-70
2022/01/12 04:03:05;;;;;;;38.33;23.48;;;;;;;1.52;93.71;103663.84;5020936;28;20431;-70
2022/01/12 04:08:23;;;;;;;36.88;22.83;;;;;;;1.51;93.94;103667.31;5033987;28;20033;-71
2022/01/12 04:10:50;;;;;;;39.53;23.20;;;;;;;1.55;94.29;103668.22;5030695;28;20391;-71
2022/01/12 04:13:16;;;;;;;42.28;24.52;;;;;;;1.53;94.29;103657.72;5033588;28;20033;-72
2022/01/12 04:15:45;;;;;;;39.58;25.23;;;;;;;1.54;94.41;103658.63;5028160;28;20013;-71
2022/01/12 04:18:11;;;;;;;40.25;24.50;;;;;;;1.54;94.43;103669.97;5033500;28;20613;-70
2022/01/12 04:20:44;;;;;;;40.00;25.52;;;;;;;1.56;94.34;103668.22;5033568;28;20082;-70
2022/01/12 04:23:18;;;;;;;40.30;25.17;;;;;;;1.55;94.35;103663.88;5029356;28;20021;-69
2022/01/12 04:25:49;;;;;;;41.40;25.10;;;;;;;1.56;94.29;103667.38;5033856;28;20037;-69
2022/01/12 04:28:16;;;;;;;44.35;26.05;;;;;;;1.54;94.67;103667.34;5033315;28;20094;-70
2022/01/12 04:30:43;;;;;;;43.20;26.75;;;;;;;1.55;94.73;103674.34;5033345;28;20030;-70
2022/01/12 04:33:08;;;;;;;46.38;27.17;;;;;;;1.54;94.52;103659.50;5023275;28;20120;-70
2022/01/12 04:35:37;;;;;;;43.90;26.83;;;;;;;1.56;94.67;103659.50;5033133;28;20164;-70
2022/01/12 04:38:03;;;;;;;46.10;27.52;;;;;;;1.56;94.48;103660.38;5032964;28;20384;-70
2022/01/12 04:40:29;;;;;;;45.65;27.25;;;;;;;1.56;94.94;103657.75;5022325;28;20498;-70
2022/01/12 04:42:55;;;;;;;41.20;26.00;;;;;;;1.56;94.90;103655.13;5032903;28;20112;-70
2022/01/12 04:50:28;;;;;;;45.72;26.88;;;;;;;1.58;95.17;103658.66;5030270;28;20049;-70
2022/01/12 04:52:54;;;;;;;44.00;26.73;;;;;;;1.55;94.50;103653.41;5022647;28;20037;-70
2022/01/12 04:55:20;;;;;;;42.85;27.08;;;;;;;1.53;94.72;103649.00;5032673;28;20029;-70
2022/01/12 04:57:45;;;;;;;47.60;27.27;;;;;;;1.55;94.77;103644.66;5032647;28;20029;-70
2022/01/12 05:00:15;;;;;;;43.53;27.23;;;;;;;1.53;95.21;103635.91;5026788;28;20025;-70
2022/01/12 05:13:27;;;;;;;45.72;27.65;;;;;;;1.58;94.92;103644.66;5030786;28;20048;-70
2022/01/12 05:15:52;;;;;;;45.67;27.23;;;;;;;1.57;95.12;103645.56;5023892;28;20373;-71
2022/01/12 05:18:18;;;;;;;42.45;27.75;;;;;;;1.58;95.06;103650.81;5026986;28;20109;-71
2022/01/12 05:20:44;;;;;;;49.83;28.60;;;;;;;1.58;94.55;103652.53;5030631;28;20025;-72
2022/01/12 05:23:10;;;;;;;46.53;29.23;;;;;;;1.59;95.10;103643.81;5018958;28;20033;-71
2022/01/12 05:25:36;;;;;;;47.10;28.77;;;;;;;1.57;94.99;103648.19;5032314;28;20037;-71
2022/01/12 05:28:01;;;;;;;47.72;29.27;;;;;;;1.57;94.87;103656.03;5032140;28;20057;-71
2022/01/12 05:30:26;;;;;;;47.65;27.65;;;;;;;1.57;94.79;103650.78;5031041;28;20025;-71
2022/01/12 05:32:51;;;;;;;47.03;29.48;;;;;;;1.57;95.25;103656.03;5026313;28;20033;-71
2022/01/12 05:35:18;;;;;;;47.85;29.20;;;;;;;1.56;94.90;103662.13;5032098;28;20470;-71
2022/01/12 05:37:44;;;;;;;47.00;28.65;;;;;;;1.58;95.20;103674.38;5026355;28;20476;-71
2022/01/12 05:40:11;;;;;;;46.03;28.67;;;;;;;1.60;95.12;103677.88;5028629;28;20076;-71
2022/01/12 05:42:37;;;;;;;45.95;28.00;;;;;;;1.63;95.04;103682.25;5023211;28;20056;-71
2022/01/12 05:45:04;;;;;;;44.35;27.30;;;;;;;1.61;95.32;103673.50;5031918;28;20042;-71
2022/01/12 05:50:10;;;;;;;46.55;28.15;;;;;;;1.64;94.85;103670.91;5031690;28;20057;-71
2022/01/12 05:52:35;;;;;;;44.90;27.85;;;;;;;1.65;94.64;103675.31;5031645;28;20129;-71
2022/01/12 05:55:03;;;;;;;46.38;29.23;;;;;;;1.65;94.95;103681.41;5028619;28;20036;-71
2022/01/12 05:57:30;;;;;;;44.80;28.20;;;;;;;1.65;94.83;103670.94;5031695;28;20025;-71
2022/01/12 05:59:56;;;;;;;51.13;31.17;;;;;;;1.65;95.14;103676.16;5032131;28;20438;-71
2022/01/12 06:02:21;;;;;;;47.63;29.98;;;;;;;1.64;95.15;103682.25;5026235;28;20042;-71
2022/01/12 06:04:46;;;;;;;49.75;30.42;;;;;;;1.61;95.07;103674.38;5031479;28;20403;-71
2022/01/12 06:07:11;;;;;;;48.63;30.67;;;;;;;1.64;94.86;103681.41;5029868;28;20025;-70
2022/01/12 06:09:37;;;;;;;49.58;30.08;;;;;;;1.64;94.98;103684.00;5020320;28;20505;-70
2022/01/12 06:12:02;;;;;;;43.28;28.80;;;;;;;1.63;94.91;103683.16;5031396;28;20032;-70
2022/01/12 06:14:28;;;;;;;47.88;29.90;;;;;;;1.65;95.27;103689.28;5025906;28;20040;-70
2022/01/12 06:16:53;;;;;;;54.08;32.72;;;;;;;1.64;95.28;103681.41;5032063;28;20047;-70
2022/01/12 06:19:18;;;;;;;55.53;31.35;;;;;;;1.64;95.02;103691.88;5026657;28;20041;-70
2022/01/12 06:21:44;;;;;;;49.40;31.77;;;;;;;1.62;95.46;103689.25;5031365;28;20044;-70
2022/01/12 06:24:09;;;;;;;48.38;30.88;;;;;;;1.62;95.31;103699.72;5021515;28;20037;-70
2022/01/12 06:26:36;;;;;;;51.47;31.40;;;;;;;1.65;95.41;103709.34;5031457;28;20051;-70
2022/01/12 06:31:41;;;;;;;51.78;29.92;;;;;;;1.63;95.58;103711.97;5031637;28;20116;-70
2022/01/12 06:34:07;;;;;;;51.85;31.75;;;;;;;1.66;95.36;103721.56;5022438;28;20061;-70
2022/01/12 06:36:32;;;;;;;51.05;31.02;;;;;;;1.65;95.42;103731.19;5028817;28;20037;-70
2022/01/12 06:38:57;;;;;;;50.45;30.90;;;;;;;1.65;95.29;103725.94;5031282;28;20468;-70
2022/01/12 06:41:24;;;;;;;52.72;30.55;;;;;;;1.64;95.08;103734.66;5031333;28;20029;-70
2022/01/12 06:43:49;;;;;;;50.33;31.95;;;;;;;1.65;95.46;103733.81;5025860;28;20345;-70
2022/01/12 06:46:17;;;;;;;49.17;30.40;;;;;;;1.66;95.79;103739.91;5028769;28;20031;-70
2022/01/12 06:48:43;;;;;;;50.90;32.17;;;;;;;1.65;95.70;103748.66;5027164;28;20021;-70
2022/01/12 06:51:09;;;;;;;49.83;31.67;;;;;;;1.66;96.02;103750.41;5030704;28;20444;-71
2022/01/12 06:53:34;;;;;;;53.95;32.45;;;;;;;1.66;95.73;103750.41;5029511;28;20096;-71
2022/01/12 06:56:00;;;;;;;54.35;32.75;;;;;;;1.67;95.91;103741.69;5030720;28;20032;-70
2022/01/12 06:58:25;;;;;;;50.40;31.45;;;;;;;1.66;95.81;103742.53;5029305;28;20032;-71
2022/01/12 07:00:51;;;;;;;54.05;32.42;;;;;;;1.65;95.94;103743.41;5026704;28;20044;-71
2022/01/12 07:03:16;;;;;;;47.90;31.40;;;;;;;1.65;95.93;103754.78;5030428;28;20056;-69
2022/01/12 07:05:41;;;;;;;50.45;30.98;;;;;;;1.66;96.19;103747.78;5019175;28;20022;-70
2022/01/12 07:08:07;;;;;;;47.88;31.60;;;;;;;1.68;96.28;103746.03;5030203;28;20083;-70
2022/01/12 07:10:32;;;;;;;48.97;31.65;;;;;;;1.69;96.03;103755.66;5022105;28;20403;-70
2022/01/12 07:12:57;;;;;;;52.17;31.35;;;;;;;1.70;96.29;103764.38;5028156;28;20056;-69
2022/01/12 07:15:22;;;;;;;51.55;31.70;;;;;;;1.72;96.23;103779.28;5024376;28;20041;-70
2022/01/12 07:17:49;;;;;;;49.33;32.05;;;;;;;1.73;96.21;103769.66;5033295;28;20045;-70
2022/01/12 07:20:15;;;;;;;49.53;30.80;;;;;;;1.73;95.82;103762.66;5031730;28;20479;-69
2022/01/12 07:22:40;;;;;;;48.25;31.02;;;;;;;1.74;96.31;103768.81;5034782;28;20092;-69
2022/01/12 07:25:06;;;;;;;50.75;31.55;;;;;;;1.73;96.18;103761.78;5024276;28;20021;-69
2022/01/12 07:27:31;;;;;;;53.75;32.35;;;;;;;1.75;96.33;103770.53;5030103;28;20137;-70
2022/01/12 07:29:57;;;;;;;49.70;31.15;;;;;;;1.75;96.01;103771.44;5028212;28;20113;-70
2022/01/12 07:32:23;;;;;;;51.20;32.40;;;;;;;1.74;96.28;103767.06;5016446;28;20375;-70
2022/01/12 07:34:48;;;;;;;51.40;32.38;;;;;;;1.76;96.17;103777.53;5017885;28;21325;-70
2022/01/12 07:37:13;;;;;;;47.60;31.70;;;;;;;1.77;95.92;103785.44;5016410;28;20041;-70
2022/01/12 07:39:38;;;;;;;52.55;32.92;;;;;;;1.79;96.46;103793.31;5015011;28;20049;-70
2022/01/12 07:42:04;;;;;;;50.85;31.30;;;;;;;1.79;95.84;103809.03;5015956;28;20124;-69
2022/01/12 07:44:30;;;;;;;50.58;31.63;;;;;;;1.79;96.01;103802.03;5020944;28;20391;-70
2022/01/12 07:46:55;;;;;;;55.65;32.72;;;;;;;1.81;96.55;103812.53;5031595;28;20090;-70
2022/01/12 07:49:20;;;;;;;53.08;31.25;;;;;;;1.82;96.22;103809.06;5033169;28;20036;-70
2022/01/12 07:51:46;;;;;;;50.33;32.75;;;;;;;1.82;96.02;103811.69;5026201;28;20056;-70
2022/01/12 07:54:11;;;;;;;52.72;33.28;;;;;;;1.83;96.40;103816.94;5017324;28;20069;-70
2022/01/12 07:56:36;;;;;;;54.70;33.85;;;;;;;1.82;96.33;103820.41;5017801;28;20046;-70
2022/01/12 07:59:02;;;;;;;49.95;32.78;;;;;;;1.84;96.58;103828.28;5020017;28;20131;-70
2022/01/12 08:01:27;;;;;;;54.40;33.90;;;;;;;1.84;96.24;103834.38;5018368;28;20050;-70
2022/01/12 08:03:52;;;;;;;54.90;32.75;;;;;;;1.85;96.21;103838.78;5019693;28;20048;-71
2022/01/12 08:06:18;;;;;;;54.65;32.95;;;;;;;1.86;96.24;103839.66;5017881;28;20075;-70
2022/01/12 08:08:43;;;;;;;57.60;34.17;;;;;;;1.86;96.32;103842.28;5016886;28;20054;-70
2022/01/12 08:11:08;;;;;;;56.60;33.22;;;;;;;1.89;96.43;103846.69;5016942;28;20480;-70
2022/01/12 08:13:34;;;;;;;62.13;34.38;;;;;;;1.90;96.87;103851.03;5016847;28;20128;-71
2022/01/12 08:16:00;;;;;;;56.67;35.60;;;;;;;1.92;96.97;103865.91;5022618;28;20064;-71
2022/01/12 08:18:25;;;;;;;60.28;33.55;;;;;;;1.93;96.89;103869.41;5040303;28;20046;-71
2022/01/12 08:20:51;;;;;;;69.10;35.55;;;;;;;1.95;96.52;103865.06;5020508;28;20025;-71
2022/01/12 08:23:16;;;;;;;70.05;36.83;;;;;;;1.97;96.83;103865.97;5022355;28;20034;-70
2022/01/12 08:25:42;;;;;;;67.03;36.72;;;;;;;1.97;96.88;103865.97;5018129;28;20491;-69
2022/01/12 08:28:08;;;;;;;70.50;37.60;;;;;;;1.99;96.83;103872.97;5020157;28;20117;-71
2022/01/12 08:30:34;;;;;;;76.03;37.15;;;;;;;2.00;96.76;103868.63;5014268;28;20025;-71
2022/01/12 08:33:01;;;;;;;73.40;38.97;;;;;;;2.01;97.03;103879.09;5027051;28;20080;-72
2022/01/12 08:35:28;;;;;;;82.40;39.20;;;;;;;2.06;97.27;103870.41;5032641;28;20116;-70
2022/01/12 08:37:53;;;;;;;73.68;38.05;;;;;;;2.04;97.14;103867.75;5030837;28;20026;-69
2022/01/12 08:40:19;;;;;;;77.20;38.40;;;;;;;2.06;97.30;103873.88;5027853;28;20033;-69
2022/01/12 08:42:45;;;;;;;85.88;39.75;;;;;;;2.06;97.59;103866.03;5022711;28;20029;-69
2022/01/12 08:45:12;;;;;;;88.60;39.60;;;;;;;2.05;97.69;103864.28;5035020;28;20029;-69
2022/01/12 08:47:38;;;;;;;84.32;41.00;;;;;;;2.07;97.58;103869.53;5034603;28;20037;-69
2022/01/12 08:50:05;;;;;;;85.03;38.40;;;;;;;2.09;97.73;103871.28;5030798;28;20053;-69
2022/01/12 08:52:30;;;;;;;75.32;38.38;;;;;;;2.12;97.70;103870.44;5030160;28;20018;-70
2022/01/12 08:54:57;;;;;;;78.90;39.38;;;;;;;2.13;97.67;103869.56;5032522;28;20026;-70
2022/01/12 08:57:22;;;;;;;95.03;40.38;;;;;;;2.15;97.88;103871.34;5029065;28;20053;-71
2022/01/12 08:59:47;;;;;;;85.03;40.38;;;;;;;2.16;97.68;103878.34;5027774;28;20049;-70
2022/01/12 09:02:14;;;;;;;92.80;41.60;;;;;;;2.17;97.85;103874.84;5028655;28;20025;-70
2022/01/12 09:04:43;;;;;;;79.78;39.55;;;;;;;2.19;98.04;103880.13;5027670;28;20037;-70
2022/01/12 09:07:08;;;;;;;77.27;38.77;;;;;;;2.22;98.17;103880.13;5004174;28;20049;-70
2022/01/12 09:09:33;;;;;;;88.25;39.53;;;;;;;2.27;98.08;103894.16;5033742;28;20276;-70
2022/01/12 09:11:59;;;;;;;87.72;41.50;;;;;;;2.28;98.51;103901.19;5027146;28;20467;-70
2022/01/12 09:14:24;;;;;;;82.13;38.95;;;;;;;2.31;98.50;103910.78;5033219;28;20489;-70
2022/01/12 09:16:54;;;;;;;79.13;39.70;;;;;;;2.33;98.48;103915.19;5033889;28;20529;-70
2022/01/12 09:19:20;;;;;;;85.70;40.03;;;;;;;2.36;98.42;103915.19;5027095;28;20036;-70
2022/01/12 09:21:46;;;;;;;70.53;37.53;;;;;;;2.38;98.61;103921.34;5033906;28;20033;-71
2022/01/12 09:24:11;;;;;;;80.03;38.67;;;;;;;2.42;98.36;103919.63;5031683;28;20033;-70
2022/01/12 09:26:36;;;;;;;83.63;39.42;;;;;;;2.45;98.86;103921.38;5031305;28;20022;-71
2022/01/12 09:29:02;;;;;;;89.50;38.75;;;;;;;2.46;98.73;103921.38;5018908;28;20034;-70
2022/01/12 09:31:27;;;;;;;78.70;37.72;;;;;;;2.49;98.79;103929.28;5013336;28;20022;-70
2022/01/12 09:33:53;;;;;;;91.50;39.20;;;;;;;2.51;98.73;103934.53;5021443;28;20536;-70
2022/01/12 09:36:18;;;;;;;74.47;37.78;;;;;;;2.54;98.84;103937.19;5028346;28;20044;-69
2022/01/12 09:38:43;;;;;;;74.05;36.90;;;;;;;2.55;98.70;103944.22;5031324;28;20475;-69
2022/01/12 09:41:09;;;;;;;79.78;39.50;;;;;;;2.57;99.05;103935.47;5031514;28;20025;-70
2022/01/12 09:43:36;;;;;;;67.00;32.67;;;;;;;2.59;98.96;103938.09;5031342;28;20021;-70
2022/01/12 09:46:02;;;;;;;80.90;34.90;;;;;;;2.62;98.72;103946.00;5027720;28;20035;-70
2022/01/12 09:48:33;;;;;;;67.72;32.67;;;;;;;2.64;98.90;103939.00;5030315;28;20117;-70
2022/01/12 09:51:01;;;;;;;62.33;29.85;;;;;;;2.65;98.78;103940.78;5031104;28;20516;-70
2022/01/12 09:53:28;;;;;;;56.80;27.73;;;;;;;2.67;98.93;103938.16;5027146;28;20034;-70
2022/01/12 09:55:54;;;;;;;57.63;26.45;;;;;;;2.70;99.05;103940.81;5031229;28;20034;-70
2022/01/12 09:58:19;;;;;;;50.78;25.55;;;;;;;2.71;99.03;103945.19;5031399;28;20026;-70
2022/01/12 10:00:59;;;;;;;49.72;26.50;;;;;;;2.71;98.86;103943.41;5025638;28;20033;-70
2022/01/12 10:03:25;;;;;;;48.83;25.48;;;;;;;2.74;98.68;103951.31;5031234;28;20068;-70
2022/01/12 10:05:51;;;;;;;57.63;25.52;;;;;;;2.77;98.80;103964.47;5028160;28;20057;-70
2022/01/12 10:08:17;;;;;;;47.90;24.90;;;;;;;2.79;99.06;103969.72;5037031;28;20127;-70
2022/01/12 10:10:59;;;;;;;60.03;25.92;;;;;;;2.81;99.06;103975.84;5033139;28;20357;-70
2022/01/12 10:13:25;;;;;;;58.08;26.63;;;;;;;2.84;99.08;103980.25;5029398;28;20037;-70
2022/01/12 10:15:54;;;;;;;50.20;25.95;;;;;;;2.84;99.32;103978.50;5025631;28;20498;-70
2022/01/12 10:18:22;;;;;;;;;;;;;;;2.94;98.84;103982.94;5033176;28;20114;-70
2022/01/12 10:20:47;;;;;;;55.05;24.60;;;;;;;2.90;98.46;103973.31;5026880;28;19921;-70
2022/01/12 10:23:15;;;;;;;51.97;24.17;;;;;;;2.87;98.55;103962.78;5024642;28;20128;-70
2022/01/12 10:25:46;;;;;;;63.03;25.02;;;;;;;2.90;98.70;103975.06;5032638;28;20025;-70
2022/01/12 10:28:14;;;;;;;49.35;24.55;;;;;;;2.90;98.60;103972.44;5027740;28;20040;-70
2022/01/12 10:30:40;;;;;;;117.00;27.08;;;;;;;2.90;98.86;103962.81;5029159;28;20037;-70
2022/01/12 10:33:08;;;;;;;56.25;23.95;;;;;;;2.89;98.73;103954.91;5028852;28;20033;-70
2022/01/12 10:35:37;;;;;;;111.00;25.85;;;;;;;2.90;98.57;103954.06;5032352;28;20537;-70
2022/01/12 10:38:14;;;;;;;65.40;25.85;;;;;;;2.93;98.90;103954.03;5028745;28;20033;-70
2022/01/12 10:41:00;;;;;;;117.68;25.70;;;;;;;2.95;98.74;103957.59;5012012;28;20279;-70
2022/01/12 10:43:30;;;;;;;96.05;24.08;;;;;;;2.92;98.54;103958.44;5013051;28;20479;-70
2022/01/12 10:45:57;;;;;;;52.10;24.50;;;;;;;2.94;98.33;103961.94;5011490;28;20030;-70
2022/01/12 10:48:25;;;;;;;46.40;24.77;;;;;;;2.99;98.50;103968.97;5012460;28;20394;-70
2022/01/12 10:50:53;;;;;;;94.47;26.60;;;;;;;2.97;98.45;103968.97;5013465;28;20057;-70
2022/01/12 10:53:31;;;;;;;76.88;25.40;;;;;;;3.01;98.66;103973.34;5014657;28;20460;-70
2022/01/12 10:56:23;;;;;;;55.45;24.55;;;;;;;3.08;98.69;103971.63;5011452;28;20491;-70
2022/01/12 10:58:51;;;;;;;75.30;25.38;;;;;;;3.07;98.34;103967.28;5019387;28;20037;-70
2022/01/12 11:01:19;;;;;;;69.10;27.30;;;;;;;3.06;98.35;103976.00;5036158;28;20037;-70
2022/01/12 11:03:44;;;;;;;57.20;26.58;;;;;;;3.07;98.44;103970.78;5029824;28;20479;-70
2022/01/12 11:06:10;;;;;;;67.88;26.13;;;;;;;3.09;98.27;103979.53;5030046;28;20038;-70
2022/01/12 11:08:38;;;;;;;54.33;26.10;;;;;;;3.09;97.97;103978.66;5029825;28;20117;-69
2022/01/12 11:11:04;;;;;;;44.67;25.48;;;;;;;3.08;97.90;103967.28;5017337;28;20080;-69
2022/01/12 11:13:31;;;;;;;70.93;25.33;;;;;;;3.10;98.00;103968.16;5027951;28;20048;-70
2022/01/12 11:15:56;;;;;;;51.60;26.02;;;;;;;3.12;97.88;103968.19;5016296;28;20041;-69
2022/01/12 11:18:25;;;;;;;53.63;26.00;;;;;;;3.13;97.61;103976.06;5013763;28;20226;-70
2022/01/12 11:20:53;;;;;;;62.63;26.98;;;;;;;3.15;97.71;103976.06;5015976;28;20076;-70
2022/01/12 11:23:20;;;;;;;60.22;26.38;;;;;;;3.12;97.13;103963.78;5020147;28;20108;-70
2022/01/12 11:25:52;;;;;;;56.67;26.42;;;;;;;3.13;97.23;103975.16;5020869;28;20026;-69
2022/01/12 11:28:22;;;;;;;52.30;26.23;;;;;;;3.14;97.26;103982.19;5029908;28;20095;-70
2022/01/12 11:30:50;;;;;;;55.17;26.02;;;;;;;3.15;97.12;103992.69;5023346;28;20041;-70
2022/01/12 11:33:18;;;;;;;49.90;26.15;;;;;;;3.14;97.23;103977.81;5032605;28;20048;-70
2022/01/12 11:35:51;;;;;;;49.08;26.75;;;;;;;3.18;97.16;103976.09;5031633;28;20119;-69
2022/01/12 11:38:23;;;;;;;50.47;26.30;;;;;;;3.21;97.15;103980.47;5028259;28;20065;-70
2022/01/12 11:40:50;;;;;;;49.28;26.20;;;;;;;3.23;97.17;103991.84;5029587;28;20372;-70
2022/01/12 11:43:21;;;;;;;51.67;26.10;;;;;;;3.22;97.16;103990.97;5022034;28;20033;-70
2022/01/12 11:46:00;;;;;;;51.33;26.15;;;;;;;3.29;96.92;103981.38;5029302;28;20049;-70
2022/01/12 11:48:33;;;;;;;58.45;27.70;;;;;;;3.29;96.59;103973.50;5029243;28;20130;-70
2022/01/12 11:50:58;;;;;;;51.13;26.48;;;;;;;3.30;96.03;103968.25;5020986;28;20492;-70
2022/01/12 11:53:23;;;;;;;55.72;26.55;;;;;;;3.30;95.65;103962.13;5024172;28;20040;-70
2022/01/12 11:55:49;;;;;;;49.72;27.65;;;;;;;3.32;95.88;103957.75;5029062;28;20112;-70
2022/01/12 11:58:18;;;;;;;48.00;26.60;;;;;;;3.30;95.68;103959.50;5012062;28;20038;-71
2022/01/12 12:00:44;;;;;;;53.17;26.00;;;;;;;3.27;95.25;103956.88;5012024;28;20384;-71
2022/01/12 12:03:15;;;;;;;50.58;25.77;;;;;;;3.28;95.42;103959.50;5014484;28;20053;-70
2022/01/12 12:05:41;;;;;;;52.65;26.73;;;;;;;3.31;95.53;103971.75;5013227;28;20021;-70
2022/01/12 12:08:07;;;;;;;49.15;27.10;;;;;;;3.33;95.52;103968.28;5012532;28;20735;-70
2022/01/12 12:10:35;;;;;;;54.45;27.80;;;;;;;3.33;95.58;103970.00;5017075;28;20030;-70
2022/01/12 12:13:00;;;;;;;51.45;25.83;;;;;;;3.34;95.75;103971.78;5013947;28;20491;-71
2022/01/12 12:15:26;;;;;;;44.55;24.77;;;;;;;3.36;95.68;103977.91;5016455;28;20026;-70
2022/01/12 12:17:54;;;;;;;51.95;25.08;;;;;;;3.39;95.71;103971.78;5018141;28;20045;-70
2022/01/12 12:20:22;;;;;;;53.70;26.13;;;;;;;3.43;95.59;103977.06;5020349;28;20049;-70
2022/01/12 12:22:49;;;;;;;50.10;24.95;;;;;;;3.45;95.41;103977.94;5027243;28;20048;-70
2022/01/12 12:25:18;;;;;;;49.63;25.23;;;;;;;3.43;94.95;103982.34;5029113;28;20037;-70
2022/01/12 12:27:49;;;;;;;50.33;26.08;;;;;;;3.47;94.97;103976.19;5040627;28;20086;-70
2022/01/12 12:30:17;;;;;;;44.25;23.73;;;;;;;3.47;94.64;103976.19;5025911;28;20232;-70
2022/01/12 12:32:48;;;;;;;44.28;23.77;;;;;;;3.48;94.20;103979.69;5013103;28;20030;-70
2022/01/12 12:35:22;;;;;;;44.80;24.55;;;;;;;3.50;94.55;103972.72;5033192;28;20065;-70
2022/01/12 12:37:58;;;;;;;46.60;24.23;;;;;;;3.52;94.56;103965.72;5028618;28;20045;-71